• Join FlightAware (Why Join?)
  • Login
  • US Flag 
10:40PM EST


 

Airport Tracker/Info


-or-


 

Live Flight TrackerFlight Track Log ✈ N319EE ✈ 26-Dec-2013 ✈ KBGM - KROC

Flight Track Log - Related Links

Times and Time Zones

All times are in EST time to prevent confusion due to time zone crossing. See the N319EE flight status page for this flight to view local times or setup timezone preferences in your user account.

Time Position Orientation Groundspeed Altitude Reporting Facility
EST Latitude Longitude Course Direction KTS MPH feet Rate Location/Type
07:46AM 42.1725 -76.0033 310° West 177 204 5,100  Level New York Center
07:47AM 42.1997 -76.0475 310° West 177 204 7,000 1,860 Climbing New York Center
07:48AM 42.2286 -76.0944 310° West 172 198 8,900 1,500 Climbing New York Center
07:49AM 42.2578 -76.1444 308° West 166 191 10,000 600 Climbing New York Center
07:50AM 42.2942 -76.2119 306° West 190 219 10,100  Climbing New York Center
07:51AM 42.3406 -76.2886 309° West 219 252 10,000 -60 Descending New York Center
07:52AM 42.3831 -76.3597 309° West 231 266 10,000  Level New York Center
07:53AM 42.4236 -76.4278 309° West 237 273 10,000  Level New York Center
07:54AM 42.4639 -76.4986 308° West 237 273 10,000  Level New York Center
07:55AM 42.5061 -76.5756 307° West 237 273 10,000  Level New York Center
07:57AM 42.6042 -76.7494 307° West 252 290 10,000  Level Cleveland Center
07:58AM 42.6358 -76.8050 308° West 248 285 10,000 60 Level Cleveland Center
07:58AM 42.6464 -76.8219 310° West 248 285 10,100  Climbing Cleveland Center
07:59AM 42.6783 -76.8817 306° West 235 270 10,000  Descending Cleveland Center
08:00AM 42.6856 -76.8919 314° West 237 273 10,100 -540 Climbing Cleveland Center
08:00AM 42.7194 -76.9522 307° West 239 275 9,500 -600 Descending Cleveland Center
08:01AM 42.7258 -76.9639 307° West 239 275 9,500 -1,020 Level Cleveland Center
08:01AM 42.7603 -77.0258 307° West 242 278 8,500 -1,320 Descending Cleveland Center
08:02AM 42.7747 -77.0497 309° West 241 277 8,200 -1,140 Descending Cleveland Center
08:02AM 42.7994 -77.0964 306° West 231 266 7,400 -1,500 Descending Cleveland Center
08:03AM 42.8139 -77.1197 310° West 236 272 6,700 -1,680 Descending Cleveland Center
08:03AM 42.8367 -77.1633 305° West 243 280 5,900 -1,560 Descending Cleveland Center
08:04AM 42.8542 -77.1936 308° West 241 277 5,100 -1,800 Descending Cleveland Center
08:04AM 42.8772 -77.2372 306° West 243 280 4,100 -1,140 Descending Cleveland Center
08:05AM 42.8953 -77.2653 311° West 242 278 4,000 -120 Descending Cleveland Center
08:05AM 42.9222 -77.2950 321° Northwest 225 259 4,000 -240 Level Cleveland Center
08:06AM 42.9442 -77.3111 332° Northwest 225 259 3,800 -1,020 Descending Cleveland Center
08:06AM 42.9692 -77.3389 321° Northwest 226 260 3,100 -1,260 Descending Cleveland Center
08:07AM 42.9978 -77.3636 328° Northwest 231 266 2,500 -600 Descending Cleveland Center
08:07AM 43.0236 -77.3906 323° Northwest 244 281 2,500  Level Cleveland Center
08:08AM 43.0611 -77.4261 325° Northwest 236 272 2,500  Level Cleveland Center
08:08AM 43.0758 -77.4417 322° Northwest 218 251 2,500  Level Cleveland Center
08:09AM 43.1078 -77.4697 327° Northwest 217 250 2,500 -120 Level Cleveland Center
08:09AM 43.1189 -77.4819 321° Northwest 184 212 2,400 -420 Descending Cleveland Center
08:10AM 43.1297 -77.5253 289° West 190 219 2,100 -300 Descending Cleveland Center
08:10AM 43.1269 -77.5450 259° West 158 182 2,100 -420 Level Cleveland Center
08:11AM 43.1264 -77.5819 269° West 168 193 1,700 -720 Descending Cleveland Center
08:11AM 43.1247 -77.6053 264° West 150 173 1,400 -780 Descending Cleveland Center
08:12AM 43.1253 -77.6392 271° West 157 181 900 -840 Descending Cleveland Center
08:12AM 43.1239 -77.6572 264° West 131 151 600 -300 Descending Cleveland Center
08:13AM 43.1222 -77.7019 267° West 153 176 600  Level Cleveland Center
08:15AM 43.1167 -77.6667 90° East  Level FlightAware Approximate